sensor_id;sensor_type;location;lat;lon;timestamp;pressure;altitude;pressure_sealevel;temperature;humidity
57827;BME280;43656;57.746;11.780;2024-01-25T00:00:31;100054.56;;;4.13;100.00
57827;BME280;43656;57.746;11.780;2024-01-25T00:02:56;100051.13;;;4.05;100.00
57827;BME280;43656;57.746;11.780;2024-01-25T00:05:22;100054.97;;;4.02;100.00
57827;BME280;43656;57.746;11.780;2024-01-25T00:07:48;100065.75;;;4.00;100.00
57827;BME280;43656;57.746;11.780;2024-01-25T00:10:16;100073.13;;;3.98;100.00
57827;BME280;43656;57.746;11.780;2024-01-25T00:12:41;100063.34;;;3.91;100.00
57827;BME280;43656;57.746;11.780;2024-01-25T00:15:08;100084.59;;;3.99;100.00
57827;BME280;43656;57.746;11.780;2024-01-25T00:17:34;100089.91;;;3.99;100.00
57827;BME280;43656;57.746;11.780;2024-01-25T00:19:59;100098.91;;;3.98;100.00
57827;BME280;43656;57.746;11.780;2024-01-25T00:22:24;100095.44;;;3.97;100.00
57827;BME280;43656;57.746;11.780;2024-01-25T00:24:50;100101.88;;;4.03;100.00
57827;BME280;43656;57.746;11.780;2024-01-25T00:27:15;100109.34;;;4.08;100.00
57827;BME280;43656;57.746;11.780;2024-01-25T00:29:41;100115.78;;;4.13;100.00
57827;BME280;43656;57.746;11.780;2024-01-25T00:32:06;100109.81;;;4.11;100.00
57827;BME280;43656;57.746;11.780;2024-01-25T00:34:33;100124.44;;;4.15;100.00
57827;BME280;43656;57.746;11.780;2024-01-25T00:36:59;100133.38;;;4.22;100.00
57827;BME280;43656;57.746;11.780;2024-01-25T00:39:24;100135.53;;;4.27;100.00
57827;BME280;43656;57.746;11.780;2024-01-25T00:41:51;100098.84;;;4.06;100.00
57827;BME280;43656;57.746;11.780;2024-01-25T00:44:17;100156.34;;;4.23;100.00
57827;BME280;43656;57.746;11.780;2024-01-25T00:46:43;100154.56;;;4.16;100.00
57827;BME280;43656;57.746;11.780;2024-01-25T00:49:08;100157.63;;;4.05;100.00
57827;BME280;43656;57.746;11.780;2024-01-25T00:51:35;100147.53;;;3.84;100.00
57827;BME280;43656;57.746;11.780;2024-01-25T00:54:01;100168.66;;;3.85;100.00
57827;BME280;43656;57.746;11.780;2024-01-25T00:56:28;100174.31;;;3.82;100.00
57827;BME280;43656;57.746;11.780;2024-01-25T00:58:53;100197.09;;;3.85;100.00
57827;BME280;43656;57.746;11.780;2024-01-25T01:01:21;100200.41;;;3.87;100.00
57827;BME280;43656;57.746;11.780;2024-01-25T01:03:48;100208.09;;;3.82;100.00
57827;BME280;43656;57.746;11.780;2024-01-25T01:06:19;100212.25;;;3.76;100.00
57827;BME280;43656;57.746;11.780;2024-01-25T01:08:45;100226.06;;;3.71;100.00
57827;BME280;43656;57.746;11.780;2024-01-25T01:11:12;100215.75;;;3.60;100.00
57827;BME280;43656;57.746;11.780;2024-01-25T01:13:37;100228.72;;;3.63;100.00
57827;BME280;43656;57.746;11.780;2024-01-25T01:16:03;100215.94;;;3.50;100.00
57827;BME280;43656;57.746;11.780;2024-01-25T01:18:28;100243.56;;;3.58;100.00
57827;BME280;43656;57.746;11.780;2024-01-25T01:20:54;100189.03;;;3.21;100.00
57827;BME280;43656;57.746;11.780;2024-01-25T01:23:19;100248.03;;;3.49;100.00
57827;BME280;43656;57.746;11.780;2024-01-25T01:25:44;100250.03;;;3.47;100.00
57827;BME280;43656;57.746;11.780;2024-01-25T01:28:11;100245.34;;;3.41;100.00
57827;BME280;43656;57.746;11.780;2024-01-25T01:30:37;100236.41;;;3.25;100.00
57827;BME280;43656;57.746;11.780;2024-01-25T01:33:06;100263.34;;;3.39;100.00
57827;BME280;43656;57.746;11.780;2024-01-25T01:35:32;100273.63;;;3.42;100.00
57827;BME280;43656;57.746;11.780;2024-01-25T01:37:57;100249.38;;;3.28;100.00
57827;BME280;43656;57.746;11.780;2024-01-25T01:40:22;100289.28;;;3.45;100.00
57827;BME280;43656;57.746;11.780;2024-01-25T01:42:48;100284.94;;;3.52;100.00
57827;BME280;43656;57.746;11.780;2024-01-25T01:45:13;100305.22;;;3.61;100.00
57827;BME280;43656;57.746;11.780;2024-01-25T01:47:39;100309.19;;;3.57;100.00
57827;BME280;43656;57.746;11.780;2024-01-25T01:50:05;100314.03;;;3.62;100.00
57827;BME280;43656;57.746;11.780;2024-01-25T01:52:32;100329.16;;;3.69;100.00
57827;BME280;43656;57.746;11.780;2024-01-25T01:54:58;100344.81;;;3.72;100.00
57827;BME280;43656;57.746;11.780;2024-01-25T01:57:23;100345.81;;;3.71;100.00
57827;BME280;43656;57.746;11.780;2024-01-25T01:59:49;100340.78;;;3.60;100.00
57827;BME280;43656;57.746;11.780;2024-01-25T02:02:15;100327.97;;;3.47;100.00
57827;BME280;43656;57.746;11.780;2024-01-25T02:04:43;100344.78;;;3.56;100.00
57827;BME280;43656;57.746;11.780;2024-01-25T02:07:08;100364.91;;;3.67;100.00
57827;BME280;43656;57.746;11.780;2024-01-25T02:09:34;100390.53;;;3.68;100.00
57827;BME280;43656;57.746;11.780;2024-01-25T02:12:03;100403.16;;;3.66;100.00
57827;BME280;43656;57.746;11.780;2024-01-25T02:14:30;100405.47;;;3.61;100.00
57827;BME280;43656;57.746;11.780;2024-01-25T02:16:56;100395.66;;;3.45;100.00
57827;BME280;43656;57.746;11.780;2024-01-25T02:19:21;100411.44;;;3.46;100.00
57827;BME280;43656;57.746;11.780;2024-01-25T02:21:51;100409.56;;;3.22;100.00
57827;BME280;43656;57.746;11.780;2024-01-25T02:24:19;100426.84;;;3.26;100.00
57827;BME280;43656;57.746;11.780;2024-01-25T02:26:45;100435.13;;;3.23;100.00
57827;BME280;43656;57.746;11.780;2024-01-25T02:29:10;100365.47;;;2.69;100.00
57827;BME280;43656;57.746;11.780;2024-01-25T02:31:36;100442.59;;;3.12;100.00
57827;BME280;43656;57.746;11.780;2024-01-25T02:34:01;100449.50;;;3.04;100.00
57827;BME280;43656;57.746;11.780;2024-01-25T02:36:27;100449.69;;;3.03;100.00
57827;BME280;43656;57.746;11.780;2024-01-25T02:38:52;100465.63;;;3.03;100.00
57827;BME280;43656;57.746;11.780;2024-01-25T02:41:17;100470.72;;;2.88;100.00
57827;BME280;43656;57.746;11.780;2024-01-25T02:43:43;100479.41;;;2.72;100.00
57827;BME280;43656;57.746;11.780;2024-01-25T02:46:08;100478.88;;;2.69;100.00
57827;BME280;43656;57.746;11.780;2024-01-25T02:48:34;100484.41;;;2.75;100.00
57827;BME280;43656;57.746;11.780;2024-01-25T02:51:00;100494.72;;;2.78;100.00
57827;BME280;43656;57.746;11.780;2024-01-25T02:53:25;100492.22;;;2.77;100.00
57827;BME280;43656;57.746;11.780;2024-01-25T02:55:50;100522.06;;;2.71;100.00
57827;BME280;43656;57.746;11.780;2024-01-25T02:58:16;100533.16;;;2.66;100.00
57827;BME280;43656;57.746;11.780;2024-01-25T03:00:41;100547.75;;;2.62;100.00
57827;BME280;43656;57.746;11.780;2024-01-25T03:03:07;100571.56;;;2.54;100.00
57827;BME280;43656;57.746;11.780;2024-01-25T03:05:32;100565.25;;;2.55;100.00
57827;BME280;43656;57.746;11.780;2024-01-25T03:08:00;100570.44;;;2.56;100.00
57827;BME280;43656;57.746;11.780;2024-01-25T03:10:25;100568.25;;;2.52;100.00
57827;BME280;43656;57.746;11.780;2024-01-25T03:12:50;100579.16;;;2.49;100.00
57827;BME280;43656;57.746;11.780;2024-01-25T03:15:16;100587.56;;;2.44;100.00
57827;BME280;43656;57.746;11.780;2024-01-25T03:17:43;100594.41;;;2.47;100.00
57827;BME280;43656;57.746;11.780;2024-01-25T03:20:11;100608.69;;;2.46;100.00
57827;BME280;43656;57.746;11.780;2024-01-25T03:22:39;100622.25;;;2.43;100.00
57827;BME280;43656;57.746;11.780;2024-01-25T03:25:04;100625.88;;;2.42;100.00
57827;BME280;43656;57.746;11.780;2024-01-25T03:27:29;100639.78;;;2.35;100.00
57827;BME280;43656;57.746;11.780;2024-01-25T03:29:55;100651.28;;;2.26;100.00
57827;BME280;43656;57.746;11.780;2024-01-25T03:32:20;100653.94;;;2.26;100.00
57827;BME280;43656;57.746;11.780;2024-01-25T03:34:46;100620.53;;;2.06;100.00
57827;BME280;43656;57.746;11.780;2024-01-25T03:37:11;100674.06;;;2.29;100.00
57827;BME280;43656;57.746;11.780;2024-01-25T03:39:38;100674.19;;;2.27;100.00
57827;BME280;43656;57.746;11.780;2024-01-25T03:42:03;100699.09;;;2.26;100.00
57827;BME280;43656;57.746;11.780;2024-01-25T03:44:29;100706.22;;;2.26;100.00
57827;BME280;43656;57.746;11.780;2024-01-25T03:46:56;100687.28;;;2.11;100.00
57827;BME280;43656;57.746;11.780;2024-01-25T03:49:21;100714.59;;;2.21;100.00
57827;BME280;43656;57.746;11.780;2024-01-25T03:51:48;100710.06;;;2.04;100.00
57827;BME280;43656;57.746;11.780;2024-01-25T03:54:13;100692.28;;;1.86;100.00
57827;BME280;43656;57.746;11.780;2024-01-25T03:56:39;100723.78;;;1.99;100.00
57827;BME280;43656;57.746;11.780;2024-01-25T03:59:04;100732.59;;;2.00;100.00
57827;BME280;43656;57.746;11.780;2024-01-25T04:01:41;100707.53;;;1.75;100.00
57827;BME280;43656;57.746;11.780;2024-01-25T04:04:06;100754.41;;;1.94;100.00
57827;BME280;43656;57.746;11.780;2024-01-25T04:06:33;100764.31;;;1.92;100.00
57827;BME280;43656;57.746;11.780;2024-01-25T04:08:58;100780.66;;;1.87;100.00
57827;BME280;43656;57.746;11.780;2024-01-25T04:11:23;100793.38;;;1.83;100.00
57827;BME280;43656;57.746;11.780;2024-01-25T04:13:49;100798.53;;;1.75;100.00
57827;BME280;43656;57.746;11.780;2024-01-25T04:16:14;100801.22;;;1.65;100.00
57827;BME280;43656;57.746;11.780;2024-01-25T04:18:41;100814.06;;;1.70;100.00
57827;BME280;43656;57.746;11.780;2024-01-25T04:21:06;100831.53;;;1.73;100.00
57827;BME280;43656;57.746;11.780;2024-01-25T04:23:31;100835.69;;;1.75;100.00
57827;BME280;43656;57.746;11.780;2024-01-25T04:25:57;100833.31;;;1.72;100.00
57827;BME280;43656;57.746;11.780;2024-01-25T04:28:22;100838.06;;;1.69;100.00
57827;BME280;43656;57.746;11.780;2024-01-25T04:30:47;100852.19;;;1.69;100.00
57827;BME280;43656;57.746;11.780;2024-01-25T04:33:13;100862.81;;;1.69;100.00
57827;BME280;43656;57.746;11.780;2024-01-25T04:35:38;100867.94;;;1.61;100.00
57827;BME280;43656;57.746;11.780;2024-01-25T04:38:05;100855.22;;;1.35;100.00
57827;BME280;43656;57.746;11.780;2024-01-25T04:40:31;100888.16;;;1.52;100.00
57827;BME280;43656;57.746;11.780;2024-01-25T04:42:56;100895.56;;;1.49;100.00
57827;BME280;43656;57.746;11.780;2024-01-25T04:45:23;100912.88;;;1.43;100.00
57827;BME280;43656;57.746;11.780;2024-01-25T04:47:48;100925.88;;;1.56;100.00
57827;BME280;43656;57.746;11.780;2024-01-25T04:50:14;100927.56;;;1.67;100.00
57827;BME280;43656;57.746;11.780;2024-01-25T04:52:39;100937.19;;;1.58;100.00
57827;BME280;43656;57.746;11.780;2024-01-25T04:55:05;100940.66;;;1.58;100.00
57827;BME280;43656;57.746;11.780;2024-01-25T04:57:30;100949.88;;;1.54;100.00
57827;BME280;43656;57.746;11.780;2024-01-25T04:59:56;100930.44;;;1.34;100.00
57827;BME280;43656;57.746;11.780;2024-01-25T05:02:21;100945.63;;;1.32;100.00
57827;BME280;43656;57.746;11.780;2024-01-25T05:04:46;100968.00;;;1.39;100.00
57827;BME280;43656;57.746;11.780;2024-01-25T05:07:12;100974.41;;;1.37;100.00
57827;BME280;43656;57.746;11.780;2024-01-25T05:09:37;100978.03;;;1.36;100.00
57827;BME280;43656;57.746;11.780;2024-01-25T05:12:03;100990.84;;;1.31;100.00
57827;BME280;43656;57.746;11.780;2024-01-25T05:14:28;100991.00;;;1.29;100.00
57827;BME280;43656;57.746;11.780;2024-01-25T05:16:54;100992.25;;;1.35;100.00
57827;BME280;43656;57.746;11.780;2024-01-25T05:19:20;100989.75;;;1.33;100.00
57827;BME280;43656;57.746;11.780;2024-01-25T05:21:45;100996.00;;;1.23;100.00
57827;BME280;43656;57.746;11.780;2024-01-25T05:24:12;101002.22;;;1.12;100.00
57827;BME280;43656;57.746;11.780;2024-01-25T05:26:38;101012.13;;;1.10;100.00
57827;BME280;43656;57.746;11.780;2024-01-25T05:29:04;101018.94;;;1.12;100.00
57827;BME280;43656;57.746;11.780;2024-01-25T05:31:30;101033.50;;;1.18;100.00
57827;BME280;43656;57.746;11.780;2024-01-25T05:33:55;101040.19;;;1.22;100.00
57827;BME280;43656;57.746;11.780;2024-01-25T05:36:21;101047.84;;;1.15;100.00
57827;BME280;43656;57.746;11.780;2024-01-25T05:38:47;101052.13;;;1.07;100.00
57827;BME280;43656;57.746;11.780;2024-01-25T05:41:12;101059.50;;;1.03;100.00
57827;BME280;43656;57.746;11.780;2024-01-25T05:43:38;101062.16;;;1.03;100.00
57827;BME280;43656;57.746;11.780;2024-01-25T05:46:03;101051.81;;;0.79;100.00
57827;BME280;43656;57.746;11.780;2024-01-25T05:48:29;101082.63;;;1.01;100.00
57827;BME280;43656;57.746;11.780;2024-01-25T05:50:54;101093.38;;;1.00;100.00
57827;BME280;43656;57.746;11.780;2024-01-25T05:53:20;101096.72;;;1.02;100.00
57827;BME280;43656;57.746;11.780;2024-01-25T05:55:46;101101.63;;;0.85;100.00
57827;BME280;43656;57.746;11.780;2024-01-25T05:58:12;101113.47;;;0.81;100.00
57827;BME280;43656;57.746;11.780;2024-01-25T06:00:37;101121.00;;;0.86;100.00
57827;BME280;43656;57.746;11.780;2024-01-25T06:03:02;101111.25;;;0.65;100.00
57827;BME280;43656;57.746;11.780;2024-01-25T06:05:28;101140.94;;;0.80;100.00
57827;BME280;43656;57.746;11.780;2024-01-25T06:07:53;101140.22;;;0.78;100.00
57827;BME280;43656;57.746;11.780;2024-01-25T06:10:20;101153.44;;;0.78;100.00
57827;BME280;43656;57.746;11.780;2024-01-25T06:12:45;101162.97;;;0.81;100.00
57827;BME280;43656;57.746;11.780;2024-01-25T06:15:10;101162.47;;;0.76;100.00
57827;BME280;43656;57.746;11.780;2024-01-25T06:17:36;101149.06;;;0.56;100.00
57827;BME280;43656;57.746;11.780;2024-01-25T06:20:01;101187.44;;;0.73;100.00
57827;BME280;43656;57.746;11.780;2024-01-25T06:22:27;101183.47;;;0.67;100.00
57827;BME280;43656;57.746;11.780;2024-01-25T06:24:53;101192.25;;;0.68;100.00
57827;BME280;43656;57.746;11.780;2024-01-25T06:27:18;101197.81;;;0.65;100.00
57827;BME280;43656;57.746;11.780;2024-01-25T06:29:44;101206.72;;;0.64;100.00
57827;BME280;43656;57.746;11.780;2024-01-25T06:32:10;101208.88;;;0.59;100.00
57827;BME280;43656;57.746;11.780;2024-01-25T06:34:35;101209.72;;;0.59;100.00
57827;BME280;43656;57.746;11.780;2024-01-25T06:37:01;101206.50;;;0.56;100.00
57827;BME280;43656;57.746;11.780;2024-01-25T06:39:26;101220.22;;;0.50;100.00
57827;BME280;43656;57.746;11.780;2024-01-25T06:41:51;101225.78;;;0.46;100.00
57827;BME280;43656;57.746;11.780;2024-01-25T06:44:17;101235.50;;;0.46;100.00
57827;BME280;43656;57.746;11.780;2024-01-25T06:46:42;101234.22;;;0.40;100.00
57827;BME280;43656;57.746;11.780;2024-01-25T06:49:08;101230.50;;;0.32;100.00
57827;BME280;43656;57.746;11.780;2024-01-25T06:51:33;101248.28;;;0.30;100.00
57827;BME280;43656;57.746;11.780;2024-01-25T06:53:59;101249.41;;;0.27;100.00
57827;BME280;43656;57.746;11.780;2024-01-25T06:56:24;101250.47;;;0.25;100.00
57827;BME280;43656;57.746;11.780;2024-01-25T06:58:50;101256.13;;;0.20;100.00
57827;BME280;43656;57.746;11.780;2024-01-25T07:01:22;101271.03;;;0.21;100.00
57827;BME280;43656;57.746;11.780;2024-01-25T07:03:47;101291.25;;;0.22;100.00
57827;BME280;43656;57.746;11.780;2024-01-25T07:06:13;101298.72;;;0.28;100.00
57827;BME280;43656;57.746;11.780;2024-01-25T07:08:38;101313.28;;;0.34;100.00
57827;BME280;43656;57.746;11.780;2024-01-25T07:11:04;101318.56;;;0.34;100.00
57827;BME280;43656;57.746;11.780;2024-01-25T07:13:29;101295.84;;;0.20;100.00
57827;BME280;43656;57.746;11.780;2024-01-25T07:15:54;101329.28;;;0.43;100.00
57827;BME280;43656;57.746;11.780;2024-01-25T07:18:20;101335.28;;;0.45;100.00
57827;BME280;43656;57.746;11.780;2024-01-25T07:20:46;101332.63;;;0.45;100.00
57827;BME280;43656;57.746;11.780;2024-01-25T07:23:12;101334.56;;;0.43;100.00
57827;BME280;43656;57.746;11.780;2024-01-25T07:25:38;101348.06;;;0.40;100.00
57827;BME280;43656;57.746;11.780;2024-01-25T07:28:03;101343.00;;;0.37;100.00
57827;BME280;43656;57.746;11.780;2024-01-25T07:30:29;101341.66;;;0.32;100.00
57827;BME280;43656;57.746;11.780;2024-01-25T07:32:54;101354.91;;;0.32;100.00
57827;BME280;43656;57.746;11.780;2024-01-25T07:35:19;101355.03;;;0.30;100.00
57827;BME280;43656;57.746;11.780;2024-01-25T07:37:45;101358.00;;;0.26;100.00
57827;BME280;43656;57.746;11.780;2024-01-25T07:40:11;101345.25;;;0.08;100.00
57827;BME280;43656;57.746;11.780;2024-01-25T07:42:36;101373.28;;;0.22;100.00
57827;BME280;43656;57.746;11.780;2024-01-25T07:45:03;101373.66;;;0.29;100.00
57827;BME280;43656;57.746;11.780;2024-01-25T07:47:29;101378.47;;;0.35;100.00
57827;BME280;43656;57.746;11.780;2024-01-25T07:49:55;101391.72;;;0.46;100.00
57827;BME280;43656;57.746;11.780;2024-01-25T07:52:20;101386.19;;;0.49;100.00
57827;BME280;43656;57.746;11.780;2024-01-25T07:54:45;101373.19;;;0.46;100.00
57827;BME280;43656;57.746;11.780;2024-01-25T07:57:11;101398.13;;;0.55;100.00
57827;BME280;43656;57.746;11.780;2024-01-25T07:59:36;101401.84;;;0.52;100.00
57827;BME280;43656;57.746;11.780;2024-01-25T08:02:02;101408.22;;;0.50;100.00
57827;BME280;43656;57.746;11.780;2024-01-25T08:04:28;101413.25;;;0.53;100.00
57827;BME280;43656;57.746;11.780;2024-01-25T08:06:53;101433.16;;;0.58;100.00
57827;BME280;43656;57.746;11.780;2024-01-25T08:09:19;101425.34;;;0.57;100.00
57827;BME280;43656;57.746;11.780;2024-01-25T08:11:45;101438.19;;;0.61;100.00
57827;BME280;43656;57.746;11.780;2024-01-25T08:14:11;101433.16;;;0.58;100.00
57827;BME280;43656;57.746;11.780;2024-01-25T08:16:37;101448.94;;;0.60;100.00
57827;BME280;43656;57.746;11.780;2024-01-25T08:19:03;101449.41;;;0.65;100.00
57827;BME280;43656;57.746;11.780;2024-01-25T08:21:28;101435.94;;;0.57;100.00
57827;BME280;43656;57.746;11.780;2024-01-25T08:23:55;101460.00;;;0.65;100.00
57827;BME280;43656;57.746;11.780;2024-01-25T08:26:20;101458.91;;;0.67;100.00
57827;BME280;43656;57.746;11.780;2024-01-25T08:29:04;101370.16;;;0.17;100.00
57827;BME280;43656;57.746;11.780;2024-01-25T08:31:29;101457.59;;;0.73;100.00
57827;BME280;43656;57.746;11.780;2024-01-25T08:33:55;101462.53;;;0.78;100.00
57827;BME280;43656;57.746;11.780;2024-01-25T08:36:20;101458.56;;;0.83;100.00
57827;BME280;43656;57.746;11.780;2024-01-25T08:38:48;101438.56;;;0.68;100.00
57827;BME280;43656;57.746;11.780;2024-01-25T08:41:14;101469.63;;;0.88;100.00
57827;BME280;43656;57.746;11.780;2024-01-25T08:43:40;101459.53;;;0.93;100.00
57827;BME280;43656;57.746;11.780;2024-01-25T08:46:06;101468.19;;;0.96;100.00
57827;BME280;43656;57.746;11.780;2024-01-25T08:48:31;101441.72;;;0.84;100.00
57827;BME280;43656;57.746;11.780;2024-01-25T08:50:57;101479.50;;;1.09;100.00
57827;BME280;43656;57.746;11.780;2024-01-25T08:53:22;101488.69;;;1.16;100.00
57827;BME280;43656;57.746;11.780;2024-01-25T08:55:52;101464.13;;;1.03;100.00
57827;BME280;43656;57.746;11.780;2024-01-25T08:58:19;101493.03;;;1.17;100.00
57827;BME280;43656;57.746;11.780;2024-01-25T09:00:45;101494.84;;;1.16;100.00
57827;BME280;43656;57.746;11.780;2024-01-25T09:03:10;101512.41;;;1.17;100.00
57827;BME280;43656;57.746;11.780;2024-01-25T09:05:37;101503.63;;;1.17;100.00
57827;BME280;43656;57.746;11.780;2024-01-25T09:08:07;101487.47;;;1.09;100.00
57827;BME280;43656;57.746;11.780;2024-01-25T09:10:32;101510.00;;;1.26;100.00
57827;BME280;43656;57.746;11.780;2024-01-25T09:12:58;101513.75;;;1.23;100.00
57827;BME280;43656;57.746;11.780;2024-01-25T09:15:23;101516.88;;;1.28;100.00
57827;BME280;43656;57.746;11.780;2024-01-25T09:17:48;101513.00;;;1.32;100.00
57827;BME280;43656;57.746;11.780;2024-01-25T09:20:14;101480.75;;;1.16;100.00
57827;BME280;43656;57.746;11.780;2024-01-25T09:22:40;101517.56;;;1.41;100.00
57827;BME280;43656;57.746;11.780;2024-01-25T09:25:06;101516.50;;;1.44;100.00
57827;BME280;43656;57.746;11.780;2024-01-25T09:27:33;101516.34;;;1.46;100.00
57827;BME280;43656;57.746;11.780;2024-01-25T09:29:58;101528.44;;;1.50;100.00
57827;BME280;43656;57.746;11.780;2024-01-25T09:32:24;101529.13;;;1.52;100.00
57827;BME280;43656;57.746;11.780;2024-01-25T09:34:49;101538.28;;;1.59;100.00
57827;BME280;43656;57.746;11.780;2024-01-25T09:37:15;101517.44;;;1.54;100.00
57827;BME280;43656;57.746;11.780;2024-01-25T09:39:40;101541.28;;;1.65;100.00
57827;BME280;43656;57.746;11.780;2024-01-25T09:42:07;101549.97;;;1.68;100.00
57827;BME280;43656;57.746;11.780;2024-01-25T09:44:32;101551.66;;;1.69;100.00
57827;BME280;43656;57.746;11.780;2024-01-25T09:46:58;101567.31;;;1.72;100.00
57827;BME280;43656;57.746;11.780;2024-01-25T09:49:23;101574.09;;;1.76;100.00
57827;BME280;43656;57.746;11.780;2024-01-25T09:51:50;101569.16;;;1.82;100.00
57827;BME280;43656;57.746;11.780;2024-01-25T09:54:16;101575.63;;;1.90;100.00
57827;BME280;43656;57.746;11.780;2024-01-25T09:56:41;101579.59;;;1.95;100.00
57827;BME280;43656;57.746;11.780;2024-01-25T09:59:08;101578.25;;;2.01;100.00
57827;BME280;43656;57.746;11.780;2024-01-25T10:01:34;101574.38;;;2.05;100.00
57827;BME280;43656;57.746;11.780;2024-01-25T10:03:59;101575.09;;;2.07;100.00
57827;BME280;43656;57.746;11.780;2024-01-25T10:06:25;101588.13;;;2.10;100.00
57827;BME280;43656;57.746;11.780;2024-01-25T10:08:52;101555.97;;;1.92;100.00
57827;BME280;43656;57.746;11.780;2024-01-25T10:11:17;101558.09;;;1.98;100.00
57827;BME280;43656;57.746;11.780;2024-01-25T10:13:44;101595.81;;;2.24;100.00
57827;BME280;43656;57.746;11.780;2024-01-25T10:16:12;101585.91;;;2.26;100.00
57827;BME280;43656;57.746;11.780;2024-01-25T10:18:40;101598.31;;;2.37;100.00
57827;BME280;43656;57.746;11.780;2024-01-25T10:21:06;101594.56;;;2.40;100.00
57827;BME280;43656;57.746;11.780;2024-01-25T10:23:33;101569.00;;;2.27;100.00
57827;BME280;43656;57.746;11.780;2024-01-25T10:25:58;101596.72;;;2.46;100.00
57827;BME280;43656;57.746;11.780;2024-01-25T10:28:25;101592.16;;;2.37;100.00
57827;BME280;43656;57.746;11.780;2024-01-25T10:30:56;101609.00;;;2.47;100.00
57827;BME280;43656;57.746;11.780;2024-01-25T10:33:24;101612.41;;;2.49;100.00
57827;BME280;43656;57.746;11.780;2024-01-25T10:35:53;101616.22;;;2.56;100.00
57827;BME280;43656;57.746;11.780;2024-01-25T10:38:21;101618.38;;;2.62;100.00
57827;BME280;43656;57.746;11.780;2024-01-25T10:40:47;101616.16;;;2.67;100.00
57827;BME280;43656;57.746;11.780;2024-01-25T10:43:13;101597.25;;;2.61;100.00
57827;BME280;43656;57.746;11.780;2024-01-25T10:45:40;101579.28;;;2.53;100.00
57827;BME280;43656;57.746;11.780;2024-01-25T10:48:07;101613.59;;;2.77;100.00
57827;BME280;43656;57.746;11.780;2024-01-25T10:50:32;101618.31;;;2.73;100.00
57827;BME280;43656;57.746;11.780;2024-01-25T10:52:58;101583.19;;;2.49;100.00
57827;BME280;43656;57.746;11.780;2024-01-25T10:55:24;101615.22;;;2.68;100.00
57827;BME280;43656;57.746;11.780;2024-01-25T10:57:51;101621.56;;;2.77;100.00
57827;BME280;43656;57.746;11.780;2024-01-25T11:00:17;101638.31;;;2.89;100.00
57827;BME280;43656;57.746;11.780;2024-01-25T11:02:44;101615.59;;;2.85;100.00
57827;BME280;43656;57.746;11.780;2024-01-25T11:05:12;101637.41;;;2.99;100.00
57827;BME280;43656;57.746;11.780;2024-01-25T11:07:45;101635.59;;;3.00;100.00
57827;BME280;43656;57.746;11.780;2024-01-25T11:10:21;101651.13;;;3.04;100.00
57827;BME280;43656;57.746;11.780;2024-01-25T11:12:55;101616.91;;;2.90;100.00
57827;BME280;43656;57.746;11.780;2024-01-25T11:15:22;101646.88;;;3.13;100.00
57827;BME280;43656;57.746;11.780;2024-01-25T11:17:55;101648.88;;;3.21;100.00
57827;BME280;43656;57.746;11.780;2024-01-25T11:20:25;101632.59;;;3.14;100.00
57827;BME280;43656;57.746;11.780;2024-01-25T11:23:13;101668.94;;;3.25;100.00
57827;BME280;43656;57.746;11.780;2024-01-25T11:25:40;101670.63;;;3.26;100.00
57827;BME280;43656;57.746;11.780;2024-01-25T11:28:05;101663.34;;;3.28;100.00
57827;BME280;43656;57.746;11.780;2024-01-25T11:30:33;101667.53;;;3.30;100.00
57827;BME280;43656;57.746;11.780;2024-01-25T11:33:00;101663.22;;;3.29;100.00
57827;BME280;43656;57.746;11.780;2024-01-25T11:35:25;101668.78;;;3.26;100.00
57827;BME280;43656;57.746;11.780;2024-01-25T11:37:52;101671.34;;;3.28;100.00
57827;BME280;43656;57.746;11.780;2024-01-25T11:40:18;101677.22;;;3.32;100.00
57827;BME280;43656;57.746;11.780;2024-01-25T11:42:47;101680.59;;;3.34;100.00
57827;BME280;43656;57.746;11.780;2024-01-25T11:45:13;101687.47;;;3.36;100.00
57827;BME280;43656;57.746;11.780;2024-01-25T11:47:42;101680.06;;;3.40;100.00
57827;BME280;43656;57.746;11.780;2024-01-25T11:50:10;101686.81;;;3.44;100.00
57827;BME280;43656;57.746;11.780;2024-01-25T11:52:36;101690.19;;;3.46;100.00
57827;BME280;43656;57.746;11.780;2024-01-25T11:55:05;101698.03;;;3.47;100.00
57827;BME280;43656;57.746;11.780;2024-01-25T11:57:33;101694.28;;;3.50;100.00
57827;BME280;43656;57.746;11.780;2024-01-25T12:00:00;101683.50;;;3.51;100.00
57827;BME280;43656;57.746;11.780;2024-01-25T12:02:26;101695.44;;;3.57;100.00
57827;BME280;43656;57.746;11.780;2024-01-25T12:04:52;101698.66;;;3.61;100.00
57827;BME280;43656;57.746;11.780;2024-01-25T12:07:20;101675.66;;;3.50;100.00
57827;BME280;43656;57.746;11.780;2024-01-25T12:10:00;101702.50;;;3.68;100.00
57827;BME280;43656;57.746;11.780;2024-01-25T12:12:27;101700.44;;;3.71;100.00
57827;BME280;43656;57.746;11.780;2024-01-25T12:14:57;101706.44;;;3.73;100.00
57827;BME280;43656;57.746;11.780;2024-01-25T12:17:23;101682.28;;;3.56;100.00
57827;BME280;43656;57.746;11.780;2024-01-25T12:19:48;101715.88;;;3.78;100.00
57827;BME280;43656;57.746;11.780;2024-01-25T12:22:20;101715.59;;;3.81;100.00
57827;BME280;43656;57.746;11.780;2024-01-25T12:24:45;101728.38;;;3.87;100.00
57827;BME280;43656;57.746;11.780;2024-01-25T12:27:11;101728.25;;;3.88;100.00
57827;BME280;43656;57.746;11.780;2024-01-25T12:29:37;101730.75;;;3.90;100.00
57827;BME280;43656;57.746;11.780;2024-01-25T12:32:03;101722.78;;;3.90;100.00
57827;BME280;43656;57.746;11.780;2024-01-25T12:34:29;101737.66;;;3.92;100.00